Time;durP1;ratioP1;P1;durP2;ratioP2;P2;SDS_P1;SDS_P2;PMS_P1;PMS_P2;Temp;Humidity;BMP_temperature;BMP_pressure;BME280_temperature;BME280_humidity;BME280_pressure;Samples;Min_cycle;Max_cycle;Signal;HPM_P1;HPM_P2
2021/08/29 00:01:22;;;;;;;;;;;;;;;;;;4998951;28;20347;-85
2021/08/29 00:03:48;;;;;;;;;;;;;;;;;;4999017;28;19915;-84
2021/08/29 00:06:13;;;;;;;;;;;;;;;;;;5015459;28;19908;-85
2021/08/29 00:08:38;;;;;;;;;;;;;;;;;;4998884;28;19926;-85
2021/08/29 00:11:04;;;;;;;;;;;;;;;;;;4998869;28;19924;-84
2021/08/29 00:13:29;;;;;;;;;;;;;;;;;;5015435;28;19941;-84
2021/08/29 00:15:54;;;;;;;;;;;;;;;;;;4998933;28;19917;-84
2021/08/29 00:18:20;;;;;;;;;;;;;;;;;;4998555;28;19994;-85
2021/08/29 00:20:46;;;;;;;;;;;;;;;;;;4998823;28;19916;-85
2021/08/29 00:23:11;;;;;;;;;;;;;;;;;;4999144;28;19909;-85
2021/08/29 00:25:37;;;;;;;;;;;;;;;;;;4998571;28;19955;-85
2021/08/29 00:28:03;;;;;;;;;;;;;;;;;;4997709;28;20294;-84
2021/08/29 00:30:28;;;;;;;;;;;;;;;;;;4998916;28;20000;-84
2021/08/29 00:32:56;;;;;;;;;;;;;;;;;;4995323;28;19917;-85
2021/08/29 00:35:21;;;;;;;;;;;;;;;;;;5046672;28;19912;-84
2021/08/29 00:37:47;;;;;;;;;;;;;;;;;;5018245;28;20012;-85
2021/08/29 00:40:14;;;;;;;;;;;;;;;;;;5018044;28;19912;-84
2021/08/29 00:42:39;;;;;;;;;;;;;;;;;;5018229;28;19913;-85
2021/08/29 00:45:05;;;;;;;;;;;;;;;;;;5018199;28;19913;-84
2021/08/29 00:47:31;;;;;;;;;;;;;;;;;;5030809;28;19913;-85
2021/08/29 00:49:56;;;;;;;;;;;;;;;;;;5014851;28;19957;-84
2021/08/29 00:52:22;;;;;;;;;;;;;;;;;;4998573;28;20386;-85
2021/08/29 00:54:47;;;;;;;;;;;;;;;;;;4998196;28;19913;-84
2021/08/29 00:57:12;;;;;;;;;;;;;;;;;;4998011;28;19909;-85
2021/08/29 00:59:47;;;;;;;;;;;;;;;;;;5014697;28;19962;-85
2021/08/29 01:02:13;;;;;;;;;;;;;;;;;;5014348;28;20366;-84
2021/08/29 01:04:50;;;;;;;;;;;;;;;;;;5014650;28;19909;-85
2021/08/29 01:07:18;;;;;;;;;;;;;;;;;;5014377;28;19927;-85
2021/08/29 01:09:44;;;;;;;;;;;;;;;;;;5014352;28;19916;-85
2021/08/29 01:12:10;;;;;;;;;;;;;;;;;;5014398;28;19958;-85
2021/08/29 01:14:36;;;;;;;;;;;;;;;;;;5014638;28;20380;-85
2021/08/29 01:17:01;;;;;;;;;;;;;;;;;;5014491;28;19920;-85
2021/08/29 01:19:53;;;;;;;;;;;;;;;;;;5014496;28;19977;-85
2021/08/29 01:22:18;;;;;;;;;;;;;;;;;;5028972;28;19909;-85
2021/08/29 01:24:43;;;;;;;;;;;;;;;;;;5014678;28;20249;-85
2021/08/29 01:27:17;;;;;;;;;;;;;;;;;;4998338;28;20004;-85
2021/08/29 01:29:42;;;;;;;;;;;;;;;;;;5011002;28;19914;-85
2021/08/29 01:32:08;;;;;;;;;;;;;;;;;;5011091;28;19959;-85
2021/08/29 01:34:33;;;;;;;;;;;;;;;;;;5032860;28;19913;-86
2021/08/29 01:36:59;;;;;;;;;;;;;;;;;;5017099;28;19909;-85
2021/08/29 01:39:26;;;;;;;;;;;;;;;;;;5035715;28;20055;-85
2021/08/29 01:41:51;;;;;;;;;;;;;;;;;;5021411;28;19934;-85
2021/08/29 01:44:16;;;;;;;;;;;;;;;;;;5021574;28;20023;-85
2021/08/29 01:46:42;;;;;;;;;;;;;;;;;;5021045;28;20293;-85
2021/08/29 01:49:07;;;;;;;;;;;;;;;;;;5021168;28;20417;-86
2021/08/29 01:51:35;;;;;;;;;;;;;;;;;;5001302;28;19920;-86
2021/08/29 01:54:00;;;;;;;;;;;;;;;;;;5001984;28;19909;-84
2021/08/29 01:56:26;;;;;;;;;;;;;;;;;;5018080;28;19909;-86
2021/08/29 01:58:52;;;;;;;;;;;;;;;;;;5018083;28;19909;-85
2021/08/29 02:01:17;;;;;;;;;;;;;;;;;;5017504;28;19913;-85
2021/08/29 02:03:43;;;;;;;;;;;;;;;;;;5034076;28;19929;-84
2021/08/29 02:06:12;;;;;;;;;;;;;;;;;;5017143;28;19992;-85
2021/08/29 02:08:41;;;;;;;;;;;;;;;;;;5018095;28;19923;-85
2021/08/29 02:11:07;;;;;;;;;;;;;;;;;;5017595;28;19909;-85
2021/08/29 02:13:34;;;;;;;;;;;;;;;;;;5034116;28;19913;-85
2021/08/29 02:16:10;;;;;;;;;;;;;;;;;;5017457;28;20003;-85
2021/08/29 02:18:36;;;;;;;;;;;;;;;;;;5017265;28;19917;-85
2021/08/29 02:21:01;;;;;;;;;;;;;;;;;;5003536;28;19972;-85
2021/08/29 02:23:29;;;;;;;;;;;;;;;;;;5014686;28;20823;-85
2021/08/29 02:25:54;;;;;;;;;;;;;;;;;;5014151;28;20392;-85
2021/08/29 02:28:20;;;;;;;;;;;;;;;;;;5013896;28;20048;-85
2021/08/29 02:30:45;;;;;;;;;;;;;;;;;;5013969;28;19925;-85
2021/08/29 02:33:10;;;;;;;;;;;;;;;;;;5013656;28;19909;-85
2021/08/29 02:35:36;;;;;;;;;;;;;;;;;;5052416;28;19918;-85
2021/08/29 02:38:02;;;;;;;;;;;;;;;;;;5037253;28;19998;-85
2021/08/29 02:40:28;;;;;;;;;;;;;;;;;;5037533;28;20010;-85
2021/08/29 02:42:53;;;;;;;;;;;;;;;;;;5053585;28;20382;-85
2021/08/29 02:45:19;;;;;;;;;;;;;;;;;;5020377;28;19909;-85
2021/08/29 02:47:44;;;;;;;;;;;;;;;;;;5014123;28;19995;-84
2021/08/29 02:50:09;;;;;;;;;;;;;;;;;;5000142;28;20286;-84
2021/08/29 02:52:36;;;;;;;;;;;;;;;;;;5000020;28;19917;-84
2021/08/29 02:55:02;;;;;;;;;;;;;;;;;;5033642;28;19978;-84
2021/08/29 02:57:32;;;;;;;;;;;;;;;;;;5016305;28;20374;-84
2021/08/29 02:59:57;;;;;;;;;;;;;;;;;;5033018;28;19920;-84
2021/08/29 03:02:23;;;;;;;;;;;;;;;;;;5032881;28;19909;-84
2021/08/29 03:04:48;;;;;;;;;;;;;;;;;;5032969;28;19971;-84
2021/08/29 03:07:14;;;;;;;;;;;;;;;;;;5032889;28;19995;-85
2021/08/29 03:09:40;;;;;;;;;;;;;;;;;;5033009;28;20302;-84
2021/08/29 03:12:10;;;;;;;;;;;;;;;;;;5033721;28;20272;-85
2021/08/29 03:14:36;;;;;;;;;;;;;;;;;;5032266;28;19944;-84
2021/08/29 03:17:02;;;;;;;;;;;;;;;;;;5032347;28;19917;-84
2021/08/29 03:19:27;;;;;;;;;;;;;;;;;;5032879;28;19933;-84
2021/08/29 03:21:53;;;;;;;;;;;;;;;;;;5032741;28;19909;-84
2021/08/29 03:24:18;;;;;;;;;;;;;;;;;;5032920;28;19916;-84
2021/08/29 03:26:43;;;;;;;;;;;;;;;;;;5015908;28;19916;-84
2021/08/29 03:29:09;;;;;;;;;;;;;;;;;;5032673;28;19909;-84
2021/08/29 03:31:34;;;;;;;;;;;;;;;;;;5032628;28;19980;-84
2021/08/29 03:34:00;;;;;;;;;;;;;;;;;;5038736;28;20380;-84
2021/08/29 03:36:25;;;;;;;;;;;;;;;;;;5035598;28;20485;-84
2021/08/29 03:38:50;;;;;;;;;;;;;;;;;;5019510;28;19916;-84
2021/08/29 03:41:18;;;;;;;;;;;;;;;;;;5035861;28;19912;-84
2021/08/29 03:43:43;;;;;;;;;;;;;;;;;;5036182;28;19935;-84
2021/08/29 03:46:09;;;;;;;;;;;;;;;;;;5019108;28;20355;-83
2021/08/29 03:48:34;;;;;;;;;;;;;;;;;;5006281;28;20363;-84
2021/08/29 03:50:59;;;;;;;;;;;;;;;;;;5015877;28;19913;-84
2021/08/29 03:53:24;;;;;;;;;;;;;;;;;;4999535;28;19909;-84
2021/08/29 03:55:50;;;;;;;;;;;;;;;;;;4999261;28;20003;-84
2021/08/29 03:58:15;;;;;;;;;;;;;;;;;;5011938;28;20008;-84
2021/08/29 04:00:41;;;;;;;;;;;;;;;;;;5011615;28;19956;-84
2021/08/29 04:03:06;;;;;;;;;;;;;;;;;;5010742;28;19909;-84
2021/08/29 04:05:32;;;;;;;;;;;;;;;;;;5012168;28;19971;-84
2021/08/29 04:07:57;;;;;;;;;;;;;;;;;;5013767;28;19935;-84
2021/08/29 04:10:22;;;;;;;;;;;;;;;;;;5031776;28;19913;-84
2021/08/29 04:12:48;;;;;;;;;;;;;;;;;;5031908;28;19908;-84
2021/08/29 04:15:13;;;;;;;;;;;;;;;;;;5031538;28;19909;-84
2021/08/29 04:17:38;;;;;;;;;;;;;;;;;;5031144;28;19913;-84
2021/08/29 04:20:04;;;;;;;;;;;;;;;;;;5031731;28;19917;-84
2021/08/29 04:22:30;;;;;;;;;;;;;;;;;;5015046;28;19916;-84
2021/08/29 04:24:55;;;;;;;;;;;;;;;;;;5031645;28;19913;-84
2021/08/29 04:27:21;;;;;;;;;;;;;;;;;;5014894;28;19908;-84
2021/08/29 04:29:46;;;;;;;;;;;;;;;;;;5031324;28;19916;-83
2021/08/29 04:32:12;;;;;;;;;;;;;;;;;;5031357;28;19913;-84
2021/08/29 04:34:37;;;;;;;;;;;;;;;;;;5042924;28;19920;-83
2021/08/29 04:37:03;;;;;;;;;;;;;;;;;;5034784;28;20350;-84
2021/08/29 04:39:28;;;;;;;;;;;;;;;;;;5018262;28;19909;-83
2021/08/29 04:41:54;;;;;;;;;;;;;;;;;;5018215;28;19909;-84
2021/08/29 04:44:19;;;;;;;;;;;;;;;;;;5034860;28;19909;-83
2021/08/29 04:46:44;;;;;;;;;;;;;;;;;;5017176;28;19909;-84
2021/08/29 04:49:10;;;;;;;;;;;;;;;;;;5000889;28;20397;-84
2021/08/29 04:51:36;;;;;;;;;;;;;;;;;;5014914;28;20154;-84
2021/08/29 04:54:02;;;;;;;;;;;;;;;;;;4998483;28;19909;-84
2021/08/29 04:56:28;;;;;;;;;;;;;;;;;;4998115;28;19975;-83
2021/08/29 04:58:53;;;;;;;;;;;;;;;;;;5031146;28;20355;-83
2021/08/29 05:01:20;;;;;;;;;;;;;;;;;;5030400;28;19908;-84
2021/08/29 05:03:45;;;;;;;;;;;;;;;;;;5014810;28;19913;-84
2021/08/29 05:06:11;;;;;;;;;;;;;;;;;;5027950;28;19916;-83
2021/08/29 05:08:36;;;;;;;;;;;;;;;;;;5027683;28;20285;-84
2021/08/29 05:11:02;;;;;;;;;;;;;;;;;;5027595;28;20371;-84
2021/08/29 05:13:27;;;;;;;;;;;;;;;;;;5011270;28;19925;-84
2021/08/29 05:15:54;;;;;;;;;;;;;;;;;;5027429;28;19911;-84
2021/08/29 05:18:19;;;;;;;;;;;;;;;;;;5027444;28;20004;-83
2021/08/29 05:20:45;;;;;;;;;;;;;;;;;;5027616;28;20000;-84
2021/08/29 05:23:11;;;;;;;;;;;;;;;;;;5011406;28;19913;-84
2021/08/29 05:25:36;;;;;;;;;;;;;;;;;;5027486;28;19959;-83
2021/08/29 05:28:01;;;;;;;;;;;;;;;;;;5027347;28;20008;-83
2021/08/29 05:30:27;;;;;;;;;;;;;;;;;;5010743;28;19916;-83
2021/08/29 05:32:52;;;;;;;;;;;;;;;;;;5011056;28;19913;-83
2021/08/29 05:35:17;;;;;;;;;;;;;;;;;;5061499;28;19912;-83
2021/08/29 05:37:43;;;;;;;;;;;;;;;;;;5017710;28;19924;-83
2021/08/29 05:40:08;;;;;;;;;;;;;;;;;;5033714;28;19920;-83
2021/08/29 05:42:33;;;;;;;;;;;;;;;;;;5009253;28;19917;-83
2021/08/29 05:44:59;;;;;;;;;;;;;;;;;;5003474;28;19992;-83
2021/08/29 05:47:24;;;;;;;;;;;;;;;;;;5012831;28;19913;-83
2021/08/29 05:49:49;;;;;;;;;;;;;;;;;;4997513;28;19913;-82
2021/08/29 05:52:15;;;;;;;;;;;;;;;;;;5014297;28;19908;-83
2021/08/29 05:54:40;;;;;;;;;;;;;;;;;;5014187;28;20287;-83
2021/08/29 05:57:05;;;;;;;;;;;;;;;;;;4993885;28;19925;-83
2021/08/29 05:59:31;;;;;;;;;;;;;;;;;;4997246;28;20385;-82
2021/08/29 06:01:56;;;;;;;;;;;;;;;;;;4997158;28;19916;-83
2021/08/29 06:04:22;;;;;;;;;;;;;;;;;;5005104;28;20382;-83
2021/08/29 06:06:47;;;;;;;;;;;;;;;;;;5010644;28;19999;-85
2021/08/29 06:09:12;;;;;;;;;;;;;;;;;;5013628;28;20287;-83
2021/08/29 06:11:38;;;;;;;;;;;;;;;;;;4997441;28;19917;-80
2021/08/29 06:14:06;;;;;;;;;;;;;;;;;;5013495;28;19995;-81
2021/08/29 06:16:32;;;;;;;;;;;;;;;;;;5027976;28;19983;-81
2021/08/29 06:18:57;;;;;;;;;;;;;;;;;;5014020;28;19952;-82
2021/08/29 06:21:23;;;;;;;;;;;;;;;;;;5028354;28;20371;-81
2021/08/29 06:23:48;;;;;;;;;;;;;;;;;;5012914;28;19961;-81
2021/08/29 06:26:13;;;;;;;;;;;;;;;;;;5014587;28;19909;-80
2021/08/29 06:28:39;;;;;;;;;;;;;;;;;;5016399;28;19924;-81
2021/08/29 06:31:04;;;;;;;;;;;;;;;;;;5016787;28;19913;-80
2021/08/29 06:33:29;;;;;;;;;;;;;;;;;;5002858;28;19909;-81
2021/08/29 06:35:55;;;;;;;;;;;;;;;;;;5009676;28;19927;-82
2021/08/29 06:38:21;;;;;;;;;;;;;;;;;;5000798;28;20370;-82
2021/08/29 06:40:46;;;;;;;;;;;;;;;;;;5000470;28;19920;-81
2021/08/29 06:43:13;;;;;;;;;;;;;;;;;;5000113;28;19913;-82
2021/08/29 06:45:38;;;;;;;;;;;;;;;;;;5032972;28;19913;-84
2021/08/29 06:48:04;;;;;;;;;;;;;;;;;;5000690;28;19983;-80
2021/08/29 06:50:29;;;;;;;;;;;;;;;;;;4999948;28;20007;-79
2021/08/29 06:52:55;;;;;;;;;;;;;;;;;;5000098;28;19917;-80
2021/08/29 06:55:20;;;;;;;;;;;;;;;;;;5016850;28;19937;-79
2021/08/29 06:57:45;;;;;;;;;;;;;;;;;;4995852;28;19925;-80
2021/08/29 07:00:11;;;;;;;;;;;;;;;;;;5000301;28;19958;-80
2021/08/29 07:02:36;;;;;;;;;;;;;;;;;;5000215;28;19917;-80
2021/08/29 07:05:02;;;;;;;;;;;;;;;;;;4999782;28;19913;-80
2021/08/29 07:07:27;;;;;;;;;;;;;;;;;;5016458;28;19928;-80
2021/08/29 07:09:52;;;;;;;;;;;;;;;;;;5016392;28;20421;-80
2021/08/29 07:12:18;;;;;;;;;;;;;;;;;;4999701;28;19916;-79
2021/08/29 07:14:43;;;;;;;;;;;;;;;;;;4998957;28;19909;-80
2021/08/29 07:17:08;;;;;;;;;;;;;;;;;;5016362;28;20399;-79
2021/08/29 07:19:34;;;;;;;;;;;;;;;;;;4998760;28;19921;-80
2021/08/29 07:21:59;;;;;;;;;;;;;;;;;;5032449;28;19937;-80
2021/08/29 07:24:24;;;;;;;;;;;;;;;;;;4999662;28;19920;-80
2021/08/29 07:26:50;;;;;;;;;;;;;;;;;;5031748;28;19920;-80
2021/08/29 07:29:17;;;;;;;;;;;;;;;;;;5016706;28;19917;-80
2021/08/29 07:31:43;;;;;;;;;;;;;;;;;;5015977;28;20383;-80
2021/08/29 07:34:08;;;;;;;;;;;;;;;;;;5033244;28;19909;-80
2021/08/29 07:36:33;;;;;;;;;;;;;;;;;;4998055;28;19920;-80
2021/08/29 07:38:59;;;;;;;;;;;;;;;;;;4998729;28;19916;-80
2021/08/29 07:41:24;;;;;;;;;;;;;;;;;;5014952;28;20367;-80
2021/08/29 07:43:50;;;;;;;;;;;;;;;;;;5015434;28;20434;-80
2021/08/29 07:46:15;;;;;;;;;;;;;;;;;;5015513;28;19909;-80
2021/08/29 07:48:40;;;;;;;;;;;;;;;;;;5015693;28;19912;-80
2021/08/29 07:51:05;;;;;;;;;;;;;;;;;;5032600;28;19924;-79
2021/08/29 07:53:31;;;;;;;;;;;;;;;;;;4999228;28;19959;-79
2021/08/29 07:55:56;;;;;;;;;;;;;;;;;;4998935;28;19968;-78
2021/08/29 07:58:21;;;;;;;;;;;;;;;;;;5011373;28;19913;-78
2021/08/29 08:00:47;;;;;;;;;;;;;;;;;;5028696;28;20363;-78
2021/08/29 08:03:12;;;;;;;;;;;;;;;;;;5028212;28;19921;-78
2021/08/29 08:05:38;;;;;;;;;;;;;;;;;;5028531;28;19913;-79
2021/08/29 08:08:03;;;;;;;;;;;;;;;;;;5012039;28;19921;-78
2021/08/29 08:10:29;;;;;;;;;;;;;;;;;;5011920;28;20340;-79
2021/08/29 08:12:54;;;;;;;;;;;;;;;;;;5012278;28;20405;-77
2021/08/29 08:15:19;;;;;;;;;;;;;;;;;;5011842;28;19952;-78
2021/08/29 08:17:45;;;;;;;;;;;;;;;;;;5031165;28;19912;-78
2021/08/29 08:20:10;;;;;;;;;;;;;;;;;;5031090;28;19929;-78
2021/08/29 08:22:36;;;;;;;;;;;;;;;;;;5027666;28;19917;-78
2021/08/29 08:25:01;;;;;;;;;;;;;;;;;;5030052;28;19913;-79
2021/08/29 08:27:26;;;;;;;;;;;;;;;;;;5030797;28;20050;-78
2021/08/29 08:29:52;;;;;;;;;;;;;;;;;;4997474;28;19913;-79
2021/08/29 08:32:18;;;;;;;;;;;;;;;;;;5015002;28;19917;-77
2021/08/29 08:34:43;;;;;;;;;;;;;;;;;;5014157;28;19932;-77
2021/08/29 08:37:09;;;;;;;;;;;;;;;;;;5030801;28;19909;-79
2021/08/29 08:39:34;;;;;;;;;;;;;;;;;;5014734;28;20429;-78
2021/08/29 08:41:59;;;;;;;;;;;;;;;;;;5031047;28;19909;-78
2021/08/29 08:44:25;;;;;;;;;;;;;;;;;;5014975;28;19916;-78
2021/08/29 08:46:50;;;;;;;;;;;;;;;;;;5014205;28;20275;-78
2021/08/29 08:49:16;;;;;;;;;;;;;;;;;;5012564;28;19936;-77
2021/08/29 08:51:45;;;;;;;;;;;;;;;;;;5011173;28;20355;-78
2021/08/29 08:54:10;;;;;;;;;;;;;;;;;;5011584;28;19909;-79
2021/08/29 08:56:36;;;;;;;;;;;;;;;;;;5011161;28;19917;-78
2021/08/29 08:59:01;;;;;;;;;;;;;;;;;;5024631;28;19909;-78
2021/08/29 09:01:27;;;;;;;;;;;;;;;;;;5011280;28;19997;-77
2021/08/29 09:03:52;;;;;;;;;;;;;;;;;;5027874;28;19921;-78
2021/08/29 09:06:18;;;;;;;;;;;;;;;;;;5027342;28;19920;-78
2021/08/29 09:08:43;;;;;;;;;;;;;;;;;;5027637;28;19948;-77
2021/08/29 09:11:09;;;;;;;;;;;;;;;;;;5011600;28;19909;-78
2021/08/29 09:13:46;;;;;;;;;;;;;;;;;;5027685;28;19909;-78
2021/08/29 09:16:13;;;;;;;;;;;;;;;;;;5012005;28;19956;-78
2021/08/29 09:18:48;;;;;;;;;;;;;;;;;;5027766;28;19918;-77
2021/08/29 09:21:26;;;;;;;;;;;;;;;;;;5030642;28;19917;-78
2021/08/29 09:23:52;;;;;;;;;;;;;;;;;;5030686;28;19917;-78
2021/08/29 09:26:21;;;;;;;;;;;;;;;;;;5030786;28;19909;-78
2021/08/29 09:28:47;;;;;;;;;;;;;;;;;;5031133;28;19996;-78
2021/08/29 09:31:14;;;;;;;;;;;;;;;;;;5030661;28;20386;-77
2021/08/29 09:33:40;;;;;;;;;;;;;;;;;;5031304;28;19909;-77
2021/08/29 09:36:08;;;;;;;;;;;;;;;;;;5030442;28;19909;-78
2021/08/29 09:38:37;;;;;;;;;;;;;;;;;;5030976;28;19913;-78
2021/08/29 09:41:03;;;;;;;;;;;;;;;;;;5030805;28;19913;-78
2021/08/29 09:43:35;;;;;;;;;;;;;;;;;;5031029;28;19928;-78
2021/08/29 09:46:08;;;;;;;;;;;;;;;;;;5030413;28;19959;-78
2021/08/29 09:48:34;;;;;;;;;;;;;;;;;;5030507;28;20000;-78
2021/08/29 09:50:59;;;;;;;;;;;;;;;;;;5030798;28;20059;-78
2021/08/29 09:53:25;;;;;;;;;;;;;;;;;;5030938;28;20003;-77
2021/08/29 09:55:50;;;;;;;;;;;;;;;;;;5030938;28;19948;-78
2021/08/29 09:58:22;;;;;;;;;;;;;;;;;;4994267;28;19949;-78
2021/08/29 10:01:13;;;;;;;;;;;;;;;;;;5012694;28;20005;-78
2021/08/29 10:03:42;;;;;;;;;;;;;;;;;;5014941;28;19913;-78
2021/08/29 10:06:19;;;;;;;;;;;;;;;;;;5013780;28;19910;-78
2021/08/29 10:08:51;;;;;;;;;;;;;;;;;;5030952;28;20042;-78
2021/08/29 10:11:16;;;;;;;;;;;;;;;;;;5031322;28;19913;-79
2021/08/29 10:13:42;;;;;;;;;;;;;;;;;;4997829;28;20433;-78
2021/08/29 10:16:07;;;;;;;;;;;;;;;;;;5014496;28;20439;-78
2021/08/29 10:18:35;;;;;;;;;;;;;;;;;;4997931;28;19921;-78
2021/08/29 10:21:00;;;;;;;;;;;;;;;;;;5026253;28;19917;-78
2021/08/29 10:23:25;;;;;;;;;;;;;;;;;;5034154;28;19913;-78
2021/08/29 10:25:52;;;;;;;;;;;;;;;;;;5034267;28;20409;-77
2021/08/29 10:28:17;;;;;;;;;;;;;;;;;;5033561;28;19912;-77
2021/08/29 10:30:42;;;;;;;;;;;;;;;;;;5033743;28;20032;-78
2021/08/29 10:33:08;;;;;;;;;;;;;;;;;;5033529;28;19913;-78
2021/08/29 10:35:34;;;;;;;;;;;;;;;;;;5033599;28;19916;-78
2021/08/29 10:37:59;;;;;;;;;;;;;;;;;;5033543;28;19912;-77
2021/08/29 10:40:24;;;;;;;;;;;;;;;;;;5033604;28;19920;-78
2021/08/29 10:42:50;;;;;;;;;;;;;;;;;;5033735;28;19909;-78
2021/08/29 10:45:15;;;;;;;;;;;;;;;;;;5033467;28;19916;-78
2021/08/29 10:47:42;;;;;;;;;;;;;;;;;;5032777;28;20008;-77
2021/08/29 10:50:08;;;;;;;;;;;;;;;;;;5033366;28;19925;-78
2021/08/29 10:52:35;;;;;;;;;;;;;;;;;;5017207;28;20003;-77
2021/08/29 10:55:01;;;;;;;;;;;;;;;;;;5017513;28;20007;-78
2021/08/29 10:57:27;;;;;;;;;;;;;;;;;;5013536;28;19914;-78
2021/08/29 11:00:05;;;;;;;;;;;;;;;;;;5013344;28;20435;-77
2021/08/29 11:02:40;;;;;;;;;;;;;;;;;;5029743;28;19909;-78
2021/08/29 11:05:07;;;;;;;;;;;;;;;;;;5013586;28;20315;-78
2021/08/29 11:07:50;;;;;;;;;;;;;;;;;;5013024;28;20000;-78
2021/08/29 11:10:35;;;;;;;;;;;;;;;;;;5013367;28;20494;-77
2021/08/29 11:13:00;;;;;;;;;;;;;;;;;;5029164;28;19924;-78
2021/08/29 11:15:36;;;;;;;;;;;;;;;;;;5012817;28;20007;-79
2021/08/29 11:18:02;;;;;;;;;;;;;;;;;;5012581;28;19913;-78
2021/08/29 11:20:27;;;;;;;;;;;;;;;;;;5015880;28;19919;-78
2021/08/29 11:22:52;;;;;;;;;;;;;;;;;;5015616;28;19939;-78
2021/08/29 11:25:19;;;;;;;;;;;;;;;;;;5016147;28;19913;-77
2021/08/29 11:27:50;;;;;;;;;;;;;;;;;;5030075;28;19915;-78
2021/08/29 11:30:17;;;;;;;;;;;;;;;;;;4996280;28;20383;-78
2021/08/29 11:32:46;;;;;;;;;;;;;;;;;;5023075;28;19913;-78
2021/08/29 11:35:35;;;;;;;;;;;;;;;;;;5007180;28;19958;-78
2021/08/29 11:38:06;;;;;;;;;;;;;;;;;;5007375;28;20366;-78
2021/08/29 11:40:50;;;;;;;;;;;;;;;;;;5032230;28;20374;-78
2021/08/29 11:43:24;;;;;;;;;;;;;;;;;;5048857;28;19909;-78
2021/08/29 11:46:00;;;;;;;;;;;;;;;;;;5031605;28;19919;-79
2021/08/29 11:48:26;;;;;;;;;;;;;;;;;;5015836;28;19996;-78
2021/08/29 11:50:52;;;;;;;;;;;;;;;;;;5015162;28;19918;-78
2021/08/29 11:53:17;;;;;;;;;;;;;;;;;;5031745;28;19959;-78
2021/08/29 11:55:42;;;;;;;;;;;;;;;;;;5031679;28;19939;-78
2021/08/29 11:58:15;;;;;;;;;;;;;;;;;;5028499;28;19914;-78
2021/08/29 12:00:40;;;;;;;;;;;;;;;;;;5028370;28;19913;-78
2021/08/29 12:03:06;;;;;;;;;;;;;;;;;;5028580;28;20012;-78
2021/08/29 12:05:31;;;;;;;;;;;;;;;;;;5045427;28;19909;-78
2021/08/29 12:07:57;;;;;;;;;;;;;;;;;;5028515;28;20495;-78
2021/08/29 12:10:23;;;;;;;;;;;;;;;;;;5028751;28;19916;-78
2021/08/29 12:12:49;;;;;;;;;;;;;;;;;;5028293;28;19917;-78
2021/08/29 12:15:15;;;;;;;;;;;;;;;;;;5014272;28;19974;-78
2021/08/29 12:17:40;;;;;;;;;;;;;;;;;;5014978;28;19913;-78
2021/08/29 12:20:06;;;;;;;;;;;;;;;;;;5015326;28;19923;-78
2021/08/29 12:22:34;;;;;;;;;;;;;;;;;;5031476;28;20417;-78
2021/08/29 12:24:59;;;;;;;;;;;;;;;;;;5030729;28;19909;-78
2021/08/29 12:27:25;;;;;;;;;;;;;;;;;;5030896;28;19974;-78
2021/08/29 12:29:54;;;;;;;;;;;;;;;;;;5014694;28;19913;-79
2021/08/29 12:32:20;;;;;;;;;;;;;;;;;;4998824;28;19915;-78
2021/08/29 12:34:59;;;;;;;;;;;;;;;;;;5031567;28;19948;-77
2021/08/29 12:37:24;;;;;;;;;;;;;;;;;;5014562;28;19916;-78
2021/08/29 12:39:56;;;;;;;;;;;;;;;;;;5030904;28;19913;-78
2021/08/29 12:42:24;;;;;;;;;;;;;;;;;;5026667;28;19913;-77
2021/08/29 12:44:49;;;;;;;;;;;;;;;;;;5030993;28;20009;-78
2021/08/29 12:47:15;;;;;;;;;;;;;;;;;;5014434;28;20016;-77
2021/08/29 12:49:40;;;;;;;;;;;;;;;;;;5031222;28;19913;-78
2021/08/29 12:52:05;;;;;;;;;;;;;;;;;;5014522;28;19909;-77
2021/08/29 12:54:31;;;;;;;;;;;;;;;;;;5030855;28;20385;-78
2021/08/29 12:56:57;;;;;;;;;;;;;;;;;;5014332;28;19917;-78
2021/08/29 12:59:26;;;;;;;;;;;;;;;;;;5027598;28;19920;-78
2021/08/29 13:01:52;;;;;;;;;;;;;;;;;;5020676;28;19913;-78
2021/08/29 13:04:27;;;;;;;;;;;;;;;;;;5014488;28;19913;-78
2021/08/29 13:07:05;;;;;;;;;;;;;;;;;;5030688;28;20368;-78
2021/08/29 13:09:32;;;;;;;;;;;;;;;;;;5015059;28;19916;-79
2021/08/29 13:11:58;;;;;;;;;;;;;;;;;;5015017;28;19996;-78
2021/08/29 13:14:30;;;;;;;;;;;;;;;;;;5014091;28;20042;-79
2021/08/29 13:16:55;;;;;;;;;;;;;;;;;;4997823;28;20307;-78
2021/08/29 13:19:27;;;;;;;;;;;;;;;;;;5014549;28;19920;-78
2021/08/29 13:21:56;;;;;;;;;;;;;;;;;;5011299;28;20275;-78
2021/08/29 13:24:21;;;;;;;;;;;;;;;;;;5011255;28;19978;-78
2021/08/29 13:26:47;;;;;;;;;;;;;;;;;;5027369;28;20435;-79
2021/08/29 13:29:12;;;;;;;;;;;;;;;;;;5027814;28;19914;-79
2021/08/29 13:31:38;;;;;;;;;;;;;;;;;;5010916;28;20410;-79
2021/08/29 13:34:04;;;;;;;;;;;;;;;;;;5011053;28;20312;-79
2021/08/29 13:36:29;;;;;;;;;;;;;;;;;;5050060;28;19909;-81
2021/08/29 13:38:55;;;;;;;;;;;;;;;;;;5018388;28;19916;-81
2021/08/29 13:41:21;;;;;;;;;;;;;;;;;;5018262;28;19909;-81
2021/08/29 13:43:46;;;;;;;;;;;;;;;;;;5017855;28;20011;-82
2021/08/29 13:46:15;;;;;;;;;;;;;;;;;;5001610;28;19947;-82
2021/08/29 13:48:42;;;;;;;;;;;;;;;;;;5001899;28;19920;-83
2021/08/29 13:51:07;;;;;;;;;;;;;;;;;;5001360;28;19962;-83
2021/08/29 13:53:33;;;;;;;;;;;;;;;;;;5034956;28;19913;-83
2021/08/29 13:55:59;;;;;;;;;;;;;;;;;;5018201;28;19963;-83
2021/08/29 13:58:24;;;;;;;;;;;;;;;;;;5013796;28;20040;-80
2021/08/29 14:00:50;;;;;;;;;;;;;;;;;;5034166;28;19920;-81
2021/08/29 14:03:15;;;;;;;;;;;;;;;;;;5017611;28;19909;-80
2021/08/29 14:05:41;;;;;;;;;;;;;;;;;;5033999;28;20321;-80
2021/08/29 14:08:08;;;;;;;;;;;;;;;;;;5001472;28;19917;-81
2021/08/29 14:10:33;;;;;;;;;;;;;;;;;;5001421;28;20379;-81
2021/08/29 14:12:58;;;;;;;;;;;;;;;;;;5017616;28;19980;-81
2021/08/29 14:15:25;;;;;;;;;;;;;;;;;;5018046;28;19916;-82
2021/08/29 14:17:50;;;;;;;;;;;;;;;;;;5001134;28;19920;-81
2021/08/29 14:20:16;;;;;;;;;;;;;;;;;;5017650;28;20302;-81
2021/08/29 14:22:41;;;;;;;;;;;;;;;;;;5033941;28;19908;-81
2021/08/29 14:25:07;;;;;;;;;;;;;;;;;;5033852;28;19913;-81
2021/08/29 14:27:32;;;;;;;;;;;;;;;;;;5016737;28;19995;-80
2021/08/29 14:29:58;;;;;;;;;;;;;;;;;;5016972;28;20317;-81
2021/08/29 14:32:23;;;;;;;;;;;;;;;;;;5001234;28;19913;-80
2021/08/29 14:34:48;;;;;;;;;;;;;;;;;;5017369;28;19928;-81
2021/08/29 14:37:14;;;;;;;;;;;;;;;;;;5017231;28;19909;-81
2021/08/29 14:39:40;;;;;;;;;;;;;;;;;;5017497;28;19952;-81
2021/08/29 14:42:06;;;;;;;;;;;;;;;;;;5033771;28;20379;-81
2021/08/29 14:44:32;;;;;;;;;;;;;;;;;;5033188;28;19917;-81
2021/08/29 14:46:57;;;;;;;;;;;;;;;;;;5011124;28;20039;-81
2021/08/29 14:49:22;;;;;;;;;;;;;;;;;;5032691;28;19917;-83
2021/08/29 14:51:48;;;;;;;;;;;;;;;;;;5033138;28;19917;-82
2021/08/29 14:54:13;;;;;;;;;;;;;;;;;;5032328;28;19917;-83
2021/08/29 14:56:38;;;;;;;;;;;;;;;;;;5011554;28;20321;-85
2021/08/29 14:59:05;;;;;;;;;;;;;;;;;;5021052;28;19928;-86
2021/08/29 15:01:30;;;;;;;;;;;;;;;;;;5033336;28;19960;-85
2021/08/29 15:03:57;;;;;;;;;;;;;;;;;;5017012;28;19952;-85
2021/08/29 15:06:23;;;;;;;;;;;;;;;;;;5016461;28;20383;-85
2021/08/29 15:08:48;;;;;;;;;;;;;;;;;;5016193;28;20010;-84
2021/08/29 15:11:14;;;;;;;;;;;;;;;;;;5000614;28;19931;-84
2021/08/29 15:13:41;;;;;;;;;;;;;;;;;;5016075;28;19963;-84
2021/08/29 15:16:08;;;;;;;;;;;;;;;;;;5000123;28;19917;-81
2021/08/29 15:18:33;;;;;;;;;;;;;;;;;;4996253;28;19940;-80
2021/08/29 15:21:00;;;;;;;;;;;;;;;;;;5037069;28;19917;-81
2021/08/29 15:23:25;;;;;;;;;;;;;;;;;;5020939;28;19972;-80
2021/08/29 15:25:51;;;;;;;;;;;;;;;;;;4999756;28;19932;-80
2021/08/29 15:28:16;;;;;;;;;;;;;;;;;;4999104;28;19963;-80
2021/08/29 15:30:42;;;;;;;;;;;;;;;;;;5016117;28;19916;-80
2021/08/29 15:33:07;;;;;;;;;;;;;;;;;;4999751;28;19916;-80
2021/08/29 15:35:32;;;;;;;;;;;;;;;;;;5016076;28;19927;-80
2021/08/29 15:37:58;;;;;;;;;;;;;;;;;;5015572;28;19913;-80
2021/08/29 15:40:30;;;;;;;;;;;;;;;;;;5015968;28;20367;-79
2021/08/29 15:42:59;;;;;;;;;;;;;;;;;;5000376;28;19920;-80
2021/08/29 15:45:27;;;;;;;;;;;;;;;;;;5015950;28;20367;-80
2021/08/29 15:47:53;;;;;;;;;;;;;;;;;;4999229;28;19966;-80
2021/08/29 15:50:18;;;;;;;;;;;;;;;;;;5015619;28;19921;-80
2021/08/29 15:52:46;;;;;;;;;;;;;;;;;;5015173;28;20379;-82
2021/08/29 15:55:12;;;;;;;;;;;;;;;;;;5015821;28;19909;-81
2021/08/29 15:57:37;;;;;;;;;;;;;;;;;;4995262;28;20032;-80
2021/08/29 16:00:02;;;;;;;;;;;;;;;;;;5003628;28;19909;-81
2021/08/29 16:02:28;;;;;;;;;;;;;;;;;;5014962;28;19936;-82
2021/08/29 16:04:53;;;;;;;;;;;;;;;;;;4990659;28;19917;-80
2021/08/29 16:07:19;;;;;;;;;;;;;;;;;;5024068;28;20359;-80
2021/08/29 16:09:45;;;;;;;;;;;;;;;;;;5031683;28;19964;-80
2021/08/29 16:12:10;;;;;;;;;;;;;;;;;;5011787;28;20356;-81
2021/08/29 16:14:35;;;;;;;;;;;;;;;;;;5028557;28;19959;-80
2021/08/29 16:17:01;;;;;;;;;;;;;;;;;;5027907;28;19914;-82
2021/08/29 16:19:28;;;;;;;;;;;;;;;;;;5015408;28;19920;-84
2021/08/29 16:21:55;;;;;;;;;;;;;;;;;;4995736;28;19956;-85
2021/08/29 16:24:21;;;;;;;;;;;;;;;;;;5012321;28;19909;-84
2021/08/29 16:26:48;;;;;;;;;;;;;;;;;;5013725;28;19913;-84
2021/08/29 16:29:14;;;;;;;;;;;;;;;;;;5015498;28;19913;-85
2021/08/29 16:31:39;;;;;;;;;;;;;;;;;;5011462;28;19920;-84
2021/08/29 16:34:04;;;;;;;;;;;;;;;;;;5031836;28;19908;-84
2021/08/29 16:36:31;;;;;;;;;;;;;;;;;;5014661;28;19939;-84
2021/08/29 16:38:57;;;;;;;;;;;;;;;;;;5015325;28;19913;-84
2021/08/29 16:41:23;;;;;;;;;;;;;;;;;;5015015;28;20371;-83